createdAt,value
2023-03-18T00:01:56.895Z,7.02
2023-03-18T00:06:59.956Z,6.96
2023-03-18T00:11:58.150Z,7.14
2023-03-18T00:16:56.397Z,7.22
2023-03-18T00:21:56.005Z,7.26
2023-03-18T00:26:55.890Z,7.14
2023-03-18T00:31:58.232Z,7.24
2023-03-18T00:37:01.780Z,7.15
2023-03-18T00:42:11.093Z,7.24
2023-03-18T00:47:10.165Z,7.46
2023-03-18T00:52:08.724Z,6.95
2023-03-18T00:57:07.446Z,6.82
2023-03-18T01:02:06.881Z,6.75
2023-03-18T01:07:05.637Z,7.00
2023-03-18T01:12:03.369Z,7.11
2023-03-18T01:17:02.378Z,7.15
2023-03-18T01:22:10.647Z,7.20
2023-03-18T01:27:15.844Z,6.91
2023-03-18T01:32:18.552Z,6.82
2023-03-18T01:37:18.157Z,6.61
2023-03-18T01:42:22.841Z,6.64
2023-03-18T01:47:24.300Z,6.78
2023-03-18T01:52:27.811Z,6.79
2023-03-18T01:57:26.514Z,6.71
2023-03-18T02:02:24.524Z,6.61
2023-03-18T02:07:26.393Z,6.74
2023-03-18T02:12:34.492Z,6.72
2023-03-18T02:17:33.481Z,6.72
2023-03-18T02:22:35.498Z,6.75
2023-03-18T02:27:35.621Z,6.57
2023-03-18T02:32:39.298Z,6.21
2023-03-18T02:37:37.785Z,6.38
2023-03-18T02:42:43.310Z,6.54
2023-03-18T02:47:44.166Z,6.41
2023-03-18T02:52:44.373Z,6.43
2023-03-18T02:57:46.074Z,5.96
2023-03-18T03:02:46.511Z,6.23
2023-03-18T03:07:46.819Z,5.97
2023-03-18T03:12:47.743Z,5.63
2023-03-18T03:17:50.757Z,5.99
2023-03-18T03:22:53.483Z,5.66
2023-03-18T03:27:53.783Z,5.79
2023-03-18T03:32:54.830Z,6.05
2023-03-18T03:37:54.174Z,6.09
2023-03-18T03:42:56.751Z,6.25
2023-03-18T03:47:57.333Z,6.17
2023-03-18T03:52:56.102Z,6.42
2023-03-18T03:57:56.593Z,6.11
2023-03-18T04:02:56.475Z,6.07
2023-03-18T04:08:02.288Z,5.69
2023-03-18T04:13:08.964Z,5.86
2023-03-18T04:18:09.054Z,6.01
2023-03-18T04:23:09.724Z,5.94
2023-03-18T04:28:09.045Z,6.17
2023-03-18T04:33:13.337Z,5.92
2023-03-18T04:38:12.258Z,5.28
2023-03-18T04:43:10.683Z,5.79
2023-03-18T04:48:11.326Z,5.81
2023-03-18T04:53:14.324Z,5.22
2023-03-18T04:58:13.339Z,5.32
2023-03-18T05:03:18.299Z,5.87
2023-03-18T05:08:20.604Z,5.65
2023-03-18T05:13:20.007Z,5.18
2023-03-18T05:18:22.792Z,5.16
2023-03-18T05:23:24.225Z,5.35
2023-03-18T05:28:28.602Z,5.37
2023-03-18T05:33:44.922Z,5.25
2023-03-18T05:38:44.542Z,5.01
2023-03-18T05:43:54.040Z,5.24
2023-03-18T05:48:54.855Z,5.41
2023-03-18T05:53:58.676Z,5.72
2023-03-18T05:59:05.019Z,5.98
2023-03-18T06:04:22.233Z,5.78
2023-03-18T06:09:23.474Z,6.53
2023-03-18T06:14:23.144Z,6.67
2023-03-18T06:19:22.269Z,7.17
2023-03-18T06:24:22.937Z,7.49
2023-03-18T06:29:20.924Z,7.74
2023-03-18T06:34:22.536Z,7.95
2023-03-18T06:39:21.799Z,8.25
2023-03-18T06:44:22.820Z,8.48
2023-03-18T06:49:26.745Z,8.43
2023-03-18T06:54:35.397Z,8.48
2023-03-18T06:59:36.839Z,8.11
2023-03-18T07:04:36.397Z,7.78
2023-03-18T07:09:40.040Z,7.95
2023-03-18T07:14:53.578Z,8.36
2023-03-18T07:19:54.731Z,8.47
2023-03-18T07:24:52.634Z,8.32
2023-03-18T07:29:52.732Z,7.91
2023-03-18T07:34:50.835Z,7.89
2023-03-18T07:39:52.995Z,7.90
2023-03-18T07:44:51.177Z,7.77
2023-03-18T07:49:49.088Z,7.81
2023-03-18T07:54:46.647Z,7.95
2023-03-18T07:59:44.904Z,7.98
2023-03-18T08:04:44.209Z,8.44
2023-03-18T08:09:43.615Z,8.50
2023-03-18T08:14:43.435Z,8.33
2023-03-18T08:19:42.299Z,8.42
2023-03-18T08:24:45.445Z,8.49
2023-03-18T08:29:45.105Z,8.31
2023-03-18T08:34:43.715Z,8.41
2023-03-18T08:39:45.123Z,8.60
2023-03-18T08:44:43.658Z,8.80
2023-03-18T08:49:44.719Z,8.66
2023-03-18T08:54:43.605Z,8.79
2023-03-18T08:59:42.075Z,9.14
2023-03-18T09:04:44.418Z,9.13
2023-03-18T09:09:44.390Z,9.08
2023-03-18T09:14:44.335Z,9.18
2023-03-18T09:19:54.069Z,9.13
2023-03-18T09:24:53.216Z,9.07
2023-03-18T09:29:52.321Z,9.17
2023-03-18T09:34:50.529Z,9.36
2023-03-18T09:39:49.373Z,9.31
2023-03-18T09:44:50.824Z,9.55
2023-03-18T09:50:23.225Z,9.64
2023-03-18T09:55:25.925Z,9.82
2023-03-18T10:00:32.693Z,10.05
2023-03-18T10:05:36.518Z,10.16
2023-03-18T10:10:41.615Z,10.37
2023-03-18T10:16:01.713Z,10.37
2023-03-18T10:21:13.736Z,10.35
2023-03-18T10:26:26.427Z,10.54
2023-03-18T10:31:32.218Z,10.69
2023-03-18T10:36:51.682Z,10.49
2023-03-18T10:41:53.581Z,10.83
2023-03-18T10:47:13.153Z,10.85
2023-03-18T10:52:16.353Z,11.04
2023-03-18T10:57:16.484Z,11.04
2023-03-18T11:02:16.655Z,10.96
2023-03-18T11:07:21.218Z,10.92
2023-03-18T11:12:23.699Z,11.27
2023-03-18T11:17:40.472Z,11.06
2023-03-18T11:22:53.553Z,11.26
2023-03-18T11:28:30.535Z,11.61
2023-03-18T11:33:39.080Z,11.21
2023-03-18T11:38:54.456Z,11.52
2023-03-18T11:44:03.854Z,11.31
2023-03-18T11:49:09.293Z,11.51
2023-03-18T11:54:21.636Z,11.52
2023-03-18T11:59:42.107Z,11.91
2023-03-18T12:04:41.233Z,11.77
2023-03-18T12:09:45.607Z,11.96
2023-03-18T12:14:51.690Z,12.07
2023-03-18T12:20:17.022Z,11.98
2023-03-18T12:25:22.768Z,12.06
2023-03-18T12:30:21.908Z,12.10
2023-03-18T12:35:43.298Z,12.37
2023-03-18T12:40:44.675Z,12.45
2023-03-18T12:45:56.946Z,12.35
2023-03-18T12:51:12.461Z,12.24
2023-03-18T12:56:14.616Z,12.59
2023-03-18T13:01:25.511Z,12.79
2023-03-18T13:07:04.130Z,12.73
2023-03-18T13:12:15.916Z,12.67
2023-03-18T13:17:30.897Z,12.92
2023-03-18T13:22:32.418Z,12.82
2023-03-18T13:27:48.679Z,13.46
2023-03-18T13:33:03.140Z,13.08
2023-03-18T13:38:05.830Z,12.98
2023-03-18T13:43:07.326Z,12.91
2023-03-18T13:48:14.722Z,13.07
2023-03-18T13:53:21.853Z,12.39
2023-03-18T13:58:26.046Z,12.13
2023-03-18T14:03:33.812Z,12.89
2023-03-18T14:08:50.819Z,14.37
2023-03-18T14:13:54.215Z,14.82
2023-03-18T14:19:35.530Z,12.89
2023-03-18T14:24:40.474Z,12.76
2023-03-18T14:29:44.333Z,11.72
2023-03-18T14:35:14.916Z,11.71
2023-03-18T14:40:21.565Z,11.68
2023-03-18T14:45:33.814Z,10.91
2023-03-18T14:50:52.330Z,11.14
2023-03-18T14:56:06.609Z,10.89
2023-03-18T15:01:10.151Z,11.10
2023-03-18T15:06:09.540Z,10.52
2023-03-18T15:17:03.421Z,10.69
2023-03-18T15:22:15.505Z,10.37
2023-03-18T15:27:21.525Z,10.26
2023-03-18T15:32:29.873Z,10.13
2023-03-18T15:37:44.782Z,9.98
2023-03-18T15:42:44.161Z,9.92
2023-03-18T15:47:46.389Z,10.38
2023-03-18T15:52:48.971Z,9.93
2023-03-18T15:57:53.641Z,10.15
2023-03-18T16:03:12.650Z,9.87
2023-03-18T16:08:20.533Z,9.76
2023-03-18T16:13:29.773Z,9.32
2023-03-18T16:18:41.936Z,9.83
2023-03-18T16:23:43.531Z,9.71
2023-03-18T16:28:47.176Z,9.58
2023-03-18T16:33:53.024Z,9.56
2023-03-18T16:38:56.417Z,9.37
2023-03-18T16:43:57.791Z,9.50
2023-03-18T16:49:08.244Z,9.76
2023-03-18T16:54:25.904Z,9.75
2023-03-18T16:59:38.026Z,9.46
2023-03-18T17:04:39.907Z,9.68
2023-03-18T17:09:46.261Z,9.46
2023-03-18T17:14:55.844Z,9.59
2023-03-18T17:19:59.903Z,9.16
2023-03-18T17:25:05.103Z,9.46
2023-03-18T17:30:22.446Z,9.21
2023-03-18T17:35:29.740Z,9.35
2023-03-18T17:40:32.044Z,9.36
2023-03-18T17:45:33.862Z,9.33
2023-03-18T17:50:39.279Z,9.45
2023-03-18T17:56:02.509Z,9.29
2023-03-18T18:01:16.644Z,9.09
2023-03-18T18:06:19.108Z,8.96
2023-03-18T18:11:35.064Z,8.97
2023-03-18T18:16:37.709Z,9.48
2023-03-18T18:21:40.028Z,9.37
2023-03-18T18:26:49.783Z,8.96
2023-03-18T18:32:17.000Z,9.09
2023-03-18T18:37:31.661Z,9.23
2023-03-18T18:43:02.118Z,9.06
2023-03-18T18:48:30.125Z,8.86
2023-03-18T18:54:10.530Z,8.91
2023-03-18T18:59:24.680Z,9.08
2023-03-18T19:04:46.279Z,9.08
2023-03-18T19:09:49.857Z,9.17
2023-03-18T19:15:08.912Z,8.86
2023-03-18T19:20:11.934Z,8.97
2023-03-18T19:25:14.088Z,8.95
2023-03-18T19:30:28.109Z,9.03
2023-03-18T19:35:32.370Z,9.30
2023-03-18T19:40:41.275Z,8.86
2023-03-18T19:45:50.658Z,8.91
2023-03-18T19:50:57.947Z,9.06
2023-03-18T19:56:06.285Z,9.37
2023-03-18T20:01:24.768Z,9.90
2023-03-18T20:06:31.335Z,9.98
2023-03-18T20:11:35.467Z,9.92
2023-03-18T20:16:52.691Z,9.93
2023-03-18T20:21:59.684Z,9.36
2023-03-18T20:27:13.439Z,9.67
2023-03-18T20:32:35.621Z,9.30
2023-03-18T20:37:34.914Z,9.52
2023-03-18T20:42:44.789Z,9.79
2023-03-18T20:48:06.428Z,9.75
2023-03-18T20:53:32.827Z,9.81
2023-03-18T20:59:18.105Z,9.74
2023-03-18T21:04:58.951Z,9.52
2023-03-18T21:10:00.263Z,9.37
2023-03-18T21:15:01.657Z,9.36
2023-03-18T21:20:22.208Z,9.60
2023-03-18T21:25:25.447Z,9.50
2023-03-18T21:30:24.082Z,9.54
2023-03-18T21:35:32.060Z,9.49
2023-03-18T21:40:33.226Z,9.47
2023-03-18T21:45:42.165Z,9.54
2023-03-18T21:50:46.018Z,9.69
2023-03-18T21:55:52.314Z,9.50
2023-03-18T22:00:52.539Z,9.22
2023-03-18T22:05:58.685Z,9.34
2023-03-18T22:16:35.578Z,9.50
2023-03-18T22:21:40.394Z,9.34
2023-03-18T22:26:43.892Z,9.36
2023-03-18T22:31:48.163Z,9.28
2023-03-18T22:36:54.222Z,9.21
2023-03-18T22:42:04.756Z,9.29
2023-03-18T22:47:14.660Z,9.39
2023-03-18T22:52:35.552Z,9.35
2023-03-18T22:57:39.581Z,9.36
2023-03-18T23:02:56.800Z,9.36
2023-03-18T23:08:03.537Z,9.06
2023-03-18T23:13:06.343Z,9.02
2023-03-18T23:18:03.777Z,9.12
2023-03-18T23:23:15.203Z,9.39
2023-03-18T23:28:21.870Z,9.42
2023-03-18T23:33:24.782Z,9.40
2023-03-18T23:38:29.654Z,9.41
2023-03-18T23:43:33.650Z,9.38
2023-03-18T23:48:40.351Z,9.48
2023-03-18T23:53:45.145Z,9.46
2023-03-18T23:58:45.288Z,9.10
